createdAt,value
2022-08-28T04:31:08.350Z,13.23
2022-08-28T04:33:36.351Z,13.27
2022-08-28T04:36:04.938Z,13.80
2022-08-28T04:38:31.933Z,13.10
2022-08-28T04:40:58.929Z,12.75
2022-08-28T04:43:26.055Z,12.15
2022-08-28T04:45:52.825Z,12.32
2022-08-28T04:48:19.697Z,11.65
2022-08-28T04:50:48.664Z,12.20
2022-08-28T04:53:18.194Z,11.80
2022-08-28T04:55:53.515Z,10.68
2022-08-28T04:58:23.694Z,11.18
2022-08-28T05:00:52.735Z,11.48
2022-08-28T05:03:19.786Z,11.80
2022-08-28T05:05:52.338Z,11.20
2022-08-28T05:08:22.126Z,11.65
2022-08-28T05:10:50.870Z,12.20
2022-08-28T05:13:18.474Z,11.15
2022-08-28T05:15:48.330Z,11.25
2022-08-28T05:18:16.247Z,10.80
2022-08-28T05:20:45.398Z,12.00
2022-08-28T05:23:13.489Z,10.50
2022-08-28T05:25:44.045Z,11.57
2022-08-28T05:28:12.555Z,12.43
2022-08-28T05:30:41.969Z,12.23
2022-08-28T05:33:09.868Z,12.18
2022-08-28T05:35:43.110Z,11.88
2022-08-28T05:38:11.174Z,12.27
2022-08-28T05:40:45.681Z,12.05
2022-08-28T05:43:14.555Z,13.68
2022-08-28T05:45:41.636Z,12.20
2022-08-28T05:48:08.842Z,13.20
2022-08-28T05:50:39.175Z,13.30
2022-08-28T05:53:10.484Z,13.05
2022-08-28T05:55:40.803Z,12.73
2022-08-28T05:58:25.981Z,11.95
2022-08-28T06:00:52.685Z,12.32
2022-08-28T06:03:19.462Z,12.00
2022-08-28T06:05:46.221Z,12.95
2022-08-28T06:08:13.360Z,12.95
2022-08-28T06:10:44.835Z,13.77
2022-08-28T06:13:15.062Z,13.25
2022-08-28T06:15:43.951Z,13.32
2022-08-28T06:18:12.548Z,13.13
2022-08-28T06:20:43.364Z,12.43
2022-08-28T06:23:12.130Z,11.90
2022-08-28T06:25:40.282Z,12.00
2022-08-28T06:28:07.795Z,12.13
2022-08-28T06:30:40.156Z,11.88
2022-08-28T06:33:09.613Z,11.30
2022-08-28T06:35:41.808Z,11.55
2022-08-28T06:38:09.488Z,12.63
2022-08-28T06:40:41.398Z,11.52
2022-08-28T06:43:08.807Z,9.95
2022-08-28T06:45:41.098Z,10.65
2022-08-28T06:48:12.587Z,9.65
2022-08-28T06:50:50.653Z,10.85
2022-08-28T06:53:20.397Z,10.40
2022-08-28T06:56:25.539Z,10.23
2022-08-28T06:58:52.679Z,9.57
2022-08-28T07:01:31.305Z,9.95
2022-08-28T07:04:01.877Z,9.23
2022-08-28T07:06:32.601Z,9.25
2022-08-28T07:08:59.352Z,9.48
2022-08-28T07:11:28.993Z,9.15
2022-08-28T07:13:57.194Z,8.55
2022-08-28T07:16:27.390Z,8.57
2022-08-28T07:18:54.548Z,8.98
2022-08-28T07:21:21.687Z,8.88
2022-08-28T07:23:48.985Z,8.60
2022-08-28T07:26:19.609Z,10.50
2022-08-28T07:28:46.798Z,9.70
2022-08-28T07:31:17.647Z,8.98
2022-08-28T07:33:44.874Z,8.77
2022-08-28T07:36:29.357Z,8.73
2022-08-28T07:38:58.846Z,8.32
2022-08-28T07:41:29.352Z,7.82
2022-08-28T07:44:14.569Z,8.13
2022-08-28T07:46:41.792Z,7.95
2022-08-28T07:49:09.415Z,7.72
2022-08-28T07:51:36.690Z,7.97
2022-08-28T07:54:04.390Z,7.15
2022-08-28T07:56:32.026Z,7.57
2022-08-28T07:59:00.070Z,7.75
2022-08-28T08:01:28.768Z,7.65
2022-08-28T08:04:01.921Z,7.25
2022-08-28T08:06:34.372Z,8.07
2022-08-28T08:09:02.216Z,7.15
2022-08-28T08:11:32.232Z,8.45
2022-08-28T08:14:05.616Z,7.90
2022-08-28T08:16:38.983Z,8.13
2022-08-28T08:19:09.772Z,7.95
2022-08-28T08:21:37.142Z,7.57
2022-08-28T08:24:04.368Z,8.52
2022-08-28T08:26:31.400Z,8.23
2022-08-28T08:28:58.904Z,7.50
2022-08-28T08:31:29.689Z,7.75
2022-08-28T08:34:01.430Z,7.68
2022-08-28T08:36:29.883Z,7.70
2022-08-28T08:38:59.426Z,7.45
2022-08-28T08:41:51.103Z,7.95
2022-08-28T08:44:40.308Z,7.85
2022-08-28T08:47:33.427Z,6.72
2022-08-28T08:50:00.326Z,6.18
2022-08-28T08:52:27.040Z,6.90
2022-08-28T08:55:21.259Z,7.07
2022-08-28T08:57:54.288Z,7.78
2022-08-28T09:00:21.466Z,7.93
2022-08-28T09:02:57.211Z,7.10
2022-08-28T09:05:53.299Z,5.97
2022-08-28T09:08:27.955Z,6.00
2022-08-28T09:11:31.612Z,6.43
2022-08-28T09:14:26.873Z,6.18
2022-08-28T09:16:57.052Z,5.32
2022-08-28T09:19:23.926Z,5.97
2022-08-28T09:21:52.337Z,6.15
2022-08-28T09:24:28.368Z,5.70
2022-08-28T09:26:58.229Z,6.13
2022-08-28T09:29:29.586Z,5.10
2022-08-28T09:31:57.682Z,4.90
2022-08-28T09:34:38.591Z,4.82
2022-08-28T09:37:08.403Z,4.45
2022-08-28T09:39:38.240Z,4.70
2022-08-28T09:42:43.673Z,4.47
2022-08-28T09:45:16.283Z,5.03
2022-08-28T09:47:48.844Z,5.55
2022-08-28T09:50:33.898Z,5.72
2022-08-28T09:53:21.335Z,5.45
2022-08-28T09:55:55.678Z,4.90
2022-08-28T09:58:28.086Z,4.72
2022-08-28T10:01:05.883Z,4.57
2022-08-28T10:03:49.763Z,3.90
2022-08-28T10:06:28.117Z,3.85
2022-08-28T10:09:24.733Z,3.85
2022-08-28T10:12:29.738Z,3.67
2022-08-28T10:15:30.447Z,4.28
2022-08-28T10:18:21.987Z,4.60
2022-08-28T10:21:01.164Z,4.45
2022-08-28T10:23:36.817Z,3.95
2022-08-28T10:26:16.468Z,3.92
2022-08-28T10:28:58.865Z,4.05
2022-08-28T10:31:58.937Z,4.50
2022-08-28T10:34:40.702Z,4.70
2022-08-28T10:37:36.614Z,3.75
2022-08-28T10:40:14.349Z,4.00
2022-08-28T10:42:51.024Z,3.60
2022-08-28T10:48:26.133Z,3.58
2022-08-28T10:51:11.909Z,3.35
2022-08-28T10:53:46.451Z,2.97
2022-08-28T10:56:17.712Z,3.50
2022-08-28T10:58:48.855Z,3.30
2022-08-28T11:01:29.698Z,2.88
2022-08-28T11:03:59.847Z,2.67
2022-08-28T11:06:51.010Z,3.08
2022-08-28T11:09:33.434Z,3.03
2022-08-28T11:12:20.107Z,2.80
2022-08-28T11:14:50.055Z,2.70
2022-08-28T11:17:27.615Z,2.70
2022-08-28T11:20:07.355Z,2.55
2022-08-28T11:22:34.234Z,2.95
2022-08-28T11:25:11.417Z,2.95
2022-08-28T11:27:39.957Z,3.22
2022-08-28T11:30:06.849Z,3.03
2022-08-28T11:32:51.657Z,2.88
2022-08-28T11:35:21.079Z,2.85
2022-08-28T11:37:53.149Z,2.95
2022-08-28T11:40:32.101Z,3.03
2022-08-28T11:43:17.372Z,2.97
2022-08-28T11:45:47.561Z,2.65
2022-08-28T11:48:36.104Z,2.42
2022-08-28T11:51:09.610Z,2.50
2022-08-28T11:53:39.323Z,2.28
2022-08-28T11:56:29.024Z,3.03
2022-08-28T11:59:22.487Z,3.13
2022-08-28T12:01:50.009Z,3.00
2022-08-28T12:04:40.780Z,2.63
2022-08-28T12:07:13.188Z,2.78
2022-08-28T12:09:42.157Z,2.67
2022-08-28T12:12:13.673Z,3.15
2022-08-28T12:14:40.832Z,2.50
2022-08-28T12:17:20.198Z,2.67
2022-08-28T12:19:56.375Z,2.67
2022-08-28T12:22:40.109Z,3.10
2022-08-28T12:25:22.513Z,2.50
2022-08-28T12:27:49.523Z,2.70
2022-08-28T12:30:28.546Z,2.88
2022-08-28T12:33:23.229Z,2.92
2022-08-28T12:35:50.334Z,2.70
2022-08-28T12:38:21.181Z,2.70
2022-08-28T12:40:50.730Z,2.75
2022-08-28T12:43:29.561Z,2.72
2022-08-28T12:46:19.683Z,3.35
2022-08-28T12:48:51.977Z,3.28
2022-08-28T12:51:34.531Z,2.77
2022-08-28T12:54:04.683Z,3.13
2022-08-28T12:56:37.947Z,2.72
2022-08-28T12:59:27.181Z,2.97
2022-08-28T13:01:54.680Z,2.78
2022-08-28T13:04:41.897Z,3.13
2022-08-28T13:07:15.733Z,2.92
2022-08-28T13:09:49.727Z,3.03
2022-08-28T13:12:20.498Z,2.65
2022-08-28T13:14:47.272Z,3.40
2022-08-28T13:17:17.390Z,2.80
2022-08-28T13:19:44.333Z,3.05
2022-08-28T13:22:32.994Z,2.95
2022-08-28T13:25:02.277Z,3.08
2022-08-28T13:27:29.639Z,2.92
2022-08-28T13:30:24.041Z,2.92
2022-08-28T13:33:16.480Z,3.17
2022-08-28T13:35:43.356Z,3.13
2022-08-28T13:38:12.587Z,3.55
2022-08-28T13:40:59.357Z,3.70
2022-08-28T13:43:30.177Z,3.65
2022-08-28T13:45:57.934Z,3.92
2022-08-28T13:48:26.780Z,3.65
2022-08-28T13:51:00.030Z,3.90
2022-08-28T13:53:26.833Z,3.58
2022-08-28T13:55:53.573Z,3.63
2022-08-28T13:58:20.405Z,3.78
2022-08-28T14:00:49.602Z,4.05
2022-08-28T14:03:35.797Z,4.20
2022-08-28T14:06:14.783Z,3.80
2022-08-28T14:08:43.700Z,3.90
2022-08-28T14:11:13.156Z,3.28
2022-08-28T14:13:47.349Z,3.38
2022-08-28T14:16:23.797Z,3.30
2022-08-28T14:18:52.570Z,3.45
2022-08-28T14:21:19.639Z,3.60
2022-08-28T14:23:46.630Z,3.28
2022-08-28T14:26:13.322Z,3.22
2022-08-28T14:28:40.090Z,3.05
2022-08-28T14:31:11.079Z,3.50
2022-08-28T14:33:40.953Z,3.05
2022-08-28T14:36:22.440Z,3.42
2022-08-28T14:38:53.833Z,3.65
2022-08-28T14:41:22.044Z,3.37
2022-08-28T14:43:49.667Z,3.10
2022-08-28T14:46:28.459Z,2.88
2022-08-28T14:48:57.424Z,3.38
2022-08-28T14:51:24.693Z,2.95
2022-08-28T14:53:52.244Z,3.33
2022-08-28T14:56:20.881Z,2.80
2022-08-28T14:58:47.976Z,3.42
2022-08-28T15:01:30.711Z,3.30
2022-08-28T15:04:09.682Z,3.58
2022-08-28T15:06:36.743Z,3.42
2022-08-28T15:09:03.921Z,3.28
2022-08-28T15:11:30.765Z,3.25
2022-08-28T15:13:58.504Z,2.80
2022-08-28T15:16:30.461Z,2.97
2022-08-28T15:18:59.404Z,2.92
2022-08-28T15:21:35.358Z,2.65
2022-08-28T15:24:03.661Z,2.80
2022-08-28T15:26:31.174Z,2.50
2022-08-28T15:29:02.372Z,3.20
2022-08-28T15:31:34.950Z,3.00
2022-08-28T15:34:13.425Z,2.40
2022-08-28T15:36:43.762Z,2.83
2022-08-28T15:39:30.055Z,2.58
2022-08-28T15:41:57.465Z,2.67
2022-08-28T15:44:24.468Z,2.50
2022-08-28T15:47:01.078Z,2.65
2022-08-28T15:49:30.525Z,2.80
2022-08-28T15:51:59.398Z,4.28
2022-08-28T15:54:26.514Z,2.67
2022-08-28T15:56:54.210Z,2.97
2022-08-28T15:59:21.940Z,2.85
2022-08-28T16:01:50.902Z,2.50
2022-08-28T16:04:18.208Z,2.47
2022-08-28T16:06:46.037Z,2.40
2022-08-28T16:09:13.697Z,2.55
2022-08-28T16:11:42.413Z,2.60
2022-08-28T16:14:09.647Z,2.50
2022-08-28T16:16:36.443Z,2.55
2022-08-28T16:19:04.344Z,2.42
2022-08-28T16:21:31.766Z,2.42
2022-08-28T16:23:58.805Z,2.40
2022-08-28T16:26:25.781Z,2.47
2022-08-28T16:28:52.589Z,2.22
2022-08-28T16:31:20.759Z,2.35
2022-08-28T16:33:49.064Z,2.75
2022-08-28T16:36:17.129Z,2.50
2022-08-28T16:38:47.875Z,2.55
2022-08-28T16:41:24.504Z,2.72
2022-08-28T16:43:54.558Z,2.75
2022-08-28T16:46:25.199Z,2.45
2022-08-28T16:48:53.082Z,2.97
2022-08-28T16:51:20.801Z,3.00
2022-08-28T16:53:48.293Z,2.70
2022-08-28T16:56:17.492Z,3.13
2022-08-28T16:58:45.301Z,2.60
2022-08-28T17:01:13.323Z,2.80
2022-08-28T17:03:40.928Z,2.67
2022-08-28T17:06:18.152Z,2.90
2022-08-28T17:08:45.093Z,2.95
2022-08-28T17:11:12.897Z,3.20
2022-08-28T17:13:40.213Z,2.38
2022-08-28T17:16:08.096Z,2.92
2022-08-28T17:18:35.933Z,3.22
2022-08-28T17:21:21.393Z,3.45
2022-08-28T17:23:48.330Z,3.20
2022-08-28T17:26:15.445Z,3.03
2022-08-28T17:28:43.277Z,3.33
2022-08-28T17:31:11.062Z,2.63
2022-08-28T17:33:42.671Z,3.22
2022-08-28T17:36:17.081Z,3.00
2022-08-28T17:39:00.230Z,2.80
2022-08-28T17:41:27.372Z,3.28
2022-08-28T17:43:54.083Z,3.28
2022-08-28T17:46:20.940Z,3.28
2022-08-28T17:48:54.369Z,3.63
2022-08-28T17:51:23.494Z,4.07
2022-08-28T17:54:10.172Z,4.28
2022-08-28T17:56:36.932Z,4.53
2022-08-28T17:59:04.389Z,4.05
2022-08-28T18:01:31.195Z,4.03
2022-08-28T18:03:58.204Z,3.20
2022-08-28T18:06:25.049Z,3.40
2022-08-28T18:08:51.973Z,3.70
2022-08-28T18:11:19.238Z,3.42
2022-08-28T18:13:46.717Z,3.45
2022-08-28T18:16:13.677Z,3.33
2022-08-28T18:18:41.450Z,3.55
2022-08-28T18:21:10.586Z,3.20
2022-08-28T18:23:37.594Z,3.63
2022-08-28T18:26:04.304Z,3.67
2022-08-28T18:28:32.310Z,3.65
2022-08-28T18:31:00.724Z,4.00
2022-08-28T18:33:28.303Z,3.30
2022-08-28T18:35:55.154Z,4.20
2022-08-28T18:38:25.513Z,3.75
2022-08-28T18:40:52.324Z,4.20
2022-08-28T18:43:21.134Z,3.83
2022-08-28T18:45:48.569Z,4.18
2022-08-28T18:48:15.480Z,4.15
2022-08-28T18:50:46.325Z,4.50
2022-08-28T18:53:14.678Z,4.38
2022-08-28T18:55:41.815Z,4.20
2022-08-28T18:58:11.124Z,4.13
2022-08-28T19:03:09.230Z,4.35
2022-08-28T19:05:37.238Z,4.30
2022-08-28T19:08:04.266Z,4.90
2022-08-28T19:10:34.484Z,4.05
2022-08-28T19:13:02.755Z,4.30
2022-08-28T19:15:31.210Z,4.65
2022-08-28T19:18:00.325Z,4.47
2022-08-28T19:20:28.095Z,4.90
2022-08-28T19:22:55.849Z,4.50
2022-08-28T19:25:28.247Z,4.70
2022-08-28T19:28:00.151Z,5.18
2022-08-28T19:30:31.093Z,4.63
2022-08-28T19:32:57.794Z,4.90
2022-08-28T19:35:24.849Z,5.15
2022-08-28T19:37:53.094Z,4.95
2022-08-28T19:40:20.550Z,4.60
2022-08-28T19:42:48.089Z,5.03
2022-08-28T19:45:15.235Z,4.88
2022-08-28T19:47:42.151Z,5.18
2022-08-28T19:50:10.838Z,5.35
2022-08-28T19:52:38.111Z,4.95
2022-08-28T19:55:06.641Z,5.15
2022-08-28T19:57:34.273Z,5.07
2022-08-28T20:00:02.185Z,4.72
2022-08-28T20:02:29.254Z,5.38
2022-08-28T20:04:56.118Z,5.50
2022-08-28T20:07:24.809Z,5.47
2022-08-28T20:09:52.335Z,5.45
2022-08-28T20:12:19.311Z,5.10
2022-08-28T20:14:46.204Z,5.32
2022-08-28T20:17:13.935Z,5.65
2022-08-28T20:19:41.221Z,5.53
2022-08-28T20:22:08.115Z,5.13
2022-08-28T20:24:35.219Z,5.30
2022-08-28T20:27:02.229Z,6.00
2022-08-28T20:29:29.278Z,5.70
2022-08-28T20:31:56.138Z,5.18
2022-08-28T20:34:23.590Z,5.00
2022-08-28T20:36:50.722Z,4.88
2022-08-28T20:39:17.808Z,5.70
2022-08-28T20:41:45.904Z,5.13
2022-08-28T20:44:15.439Z,5.90
2022-08-28T20:46:42.938Z,5.35
2022-08-28T20:49:14.085Z,6.03
2022-08-28T20:51:58.653Z,5.97
2022-08-28T20:54:32.807Z,5.85
2022-08-28T20:57:02.455Z,5.63
2022-08-28T20:59:37.143Z,5.80
2022-08-28T21:02:09.171Z,6.00
2022-08-28T21:04:38.857Z,6.00
2022-08-28T21:07:06.406Z,5.65
2022-08-28T21:09:40.977Z,6.05
2022-08-28T21:12:20.437Z,5.25
2022-08-28T21:14:51.680Z,5.82
2022-08-28T21:17:20.803Z,6.40
2022-08-28T21:19:55.524Z,5.78
2022-08-28T21:22:22.585Z,6.70
2022-08-28T21:24:49.325Z,6.10
2022-08-28T21:27:16.061Z,5.72
2022-08-28T21:29:45.999Z,6.10
2022-08-28T21:32:13.190Z,6.13
2022-08-28T21:34:40.458Z,5.93
2022-08-28T21:37:07.366Z,5.93
2022-08-28T21:39:35.238Z,6.07
2022-08-28T21:42:01.983Z,5.70
2022-08-28T21:44:28.989Z,6.50
2022-08-28T21:46:55.726Z,6.13
2022-08-28T21:49:23.031Z,6.07
2022-08-28T21:51:50.444Z,6.05
2022-08-28T21:54:18.189Z,6.03
2022-08-28T21:56:45.505Z,5.78
2022-08-28T21:59:12.814Z,6.40
2022-08-28T22:01:41.244Z,6.63
2022-08-28T22:04:08.058Z,6.25
2022-08-28T22:06:34.946Z,6.70
2022-08-28T22:09:03.286Z,6.43
2022-08-28T22:11:30.931Z,6.60
2022-08-28T22:13:57.912Z,6.68
2022-08-28T22:16:25.685Z,6.57
2022-08-28T22:18:52.952Z,5.97
2022-08-28T22:21:42.414Z,6.90
2022-08-28T22:24:10.368Z,6.65
2022-08-28T22:26:37.997Z,6.20
2022-08-28T22:29:05.841Z,6.32
2022-08-28T22:31:32.569Z,6.95
2022-08-28T22:33:59.344Z,6.13
2022-08-28T22:36:29.217Z,6.75
2022-08-28T22:38:56.380Z,6.75
2022-08-28T22:41:24.343Z,6.13
2022-08-28T22:43:53.398Z,6.88
2022-08-28T22:46:20.620Z,6.45
2022-08-28T22:48:48.005Z,6.20
2022-08-28T22:51:18.482Z,6.85
2022-08-28T22:53:46.746Z,6.65
2022-08-28T22:56:14.611Z,6.90
2022-08-28T22:58:41.593Z,6.60
